Weather at Munhak Heliport (C-107)

Public forecast

Using degrees Celsius for public forecast. Weather courtesy of forecast.io.

Closest aviation weather report (METAR) to Munhak Heliport (C-107)

Closest report is Gimpo International Airport, 9.4 nm (17.5 km) NE. Retrieved 2020/10/21 04:00 UTC (13 minutes ago):

RKSS 210400Z 16007KT CAVOK 17/09 Q1019 NOSIG

Closest aviation forecast (TAF) to Munhak Heliport (C-107)

Closest forecast is Gimpo International Airport, 9.4 nm (17.5 km) NE. Retrieved 2020-10-21 00:00 UTC (4 hours ago):

TAF RKSS 202300Z 2100/2206 17007KT 9999 FEW030 BKN130 TX19/2105Z TN10/2121Z TX18/2205Z BECMG 2107/2108 BKN030 BKN100 BECMG 2115/2116 4000 -RA SCT010 BKN025 OVC060 BECMG 2119/2120 24007KT BR BECMG 2123/2124 6000 NSW SCT030 BKN200 BECMG 2201/2202 30010KT CAVOK